Home > Products > Valid Products > MTR

000
SAZS31 NSTU 280354
MTRPPG
METAR NSTU 280351Z 02005KT 12SM FEW018 SCT040 OVC090 29/24 A2962 RMK
 SLP030 T02900243=





000
SAZS31 NSTU 280256
MTRPPG
METAR NSTU 280252Z 03004KT 12SM SCT015 BKN040 OVC100 29/24 A2960 RMK
SLP025 8/82/ T02910243 56003=




000
SAZS31 NSTU 280256
MTRPPG
METAR NSTU 280252Z 03004KT 12SM SCT015 BKN040 OVC100 29/24 A2960 RMK
SLP025 8/82/ T02910243 56003=




000
SAZS31 NSTU 280153
MTRPPG
METAR NSTU 280151Z 06006KT 12SM FEW016 SCT040 OVC100 29/24 A2960 RMK
 SLP024 T02870242=




000
SAZS31 NSTU 280059
MTRPPG
METAR NSTU 280053Z VRB04KT 12SM SCT020 OVC100 29/24 A2960 RMK SLP024
 T02850237=




000
SAZS31 NSTU 272356
MTRPPG
METAR NSTU 272352Z 00000KT 12SM FEW024 SCT050 OVC100 29/24 A2961 RMK
 SLP029 8/82/ T02920237 10292 20269 56024=




000
SAZS31 NSTU 272253
MTRPPG
METAR NSTU 272151Z 36006KT 12SM FEW016 SCT045 OVC100 29/25 A2967 RMK
 SLP047 T02890245=




000
SAZS31 NSTU 272055
MTRPPG
METAR NSTU 272052Z VRB04KT 12SM FEW016 FEW050 OVC100 29/24 A2968 RMK
 SLP052 8/82/ T02910242 51015=




000
SAZS31 NSTU 271955
MTRPPG
METAR NSTU 271951Z VRB03KT 12SM FEW016 FEW050 OVC100 28/24 A2967 RMK
 SLP049 T02780242=




000
SAZS31 NSTU 271852
MTRPPG
METAR NSTU 271850Z 36006KT 11SM FEW016 BKN050 OVC100 28/24 A2966 RMK
 SLP046 T02750242=




000
SAZS31 NSTU 271756
MTRPPG
METAR NSTU 271751Z VRB04KT 10SM FEW016 BKN040 OVC100 27/24 A2964 RMK
SHRAE40 SLP037 60122 8/82/ T02690238 10280 20256 52007=




000
SAZS31 NSTU 271654
MTRPPG
METAR NSTU 271650Z VRB03KT 10SM -SHRA FEW014 BKN040 OVC100 27/24
A2962 RMK SLP032 T02650236=




000
SAZS31 NSTU 271557
MTRPPG
METAR NSTU 271551Z 32007KT 7SM -SHRA SCT016 BKN048 OVC100 26/24
A2962 RMK SLP032 T02600235=




000
SAZS31 NSTU 271556
MTRPPG
METAR NSTU 271551Z 32007KT 7SM -SHRA SCT016 BKN048 OVC100 26/24
A2962 RMK SLP032 T02600235=




000
SAZS31 NSTU 271453
MTRPPG
METAR NSTU 271450Z 31007KT 5SM -SHRA FEW006 SCT015 BKN048 OVC080
26/24 A2962 RMK SLP030 60118 8/82/ T02570239 56012=




000
SAZS31 NSTU 271354
MTRPPG
METAR NSTU 271350Z 33009KT 1SM +SHRA SCT006 BKN012 OVC036 26/24
A2963 RMK SLP034 T02570242=




000
SAZS31 NSTU 271256
MTRPPG
METAR NSTU 271254Z 32008KT 7SM -SHRA SCT015 BKN040 OVC100 28/24
A2963 RMK SHRAB45 SLP036 T02760240=




000
SAZS31 NSTU 271158
MTRPPG
METAR NSTU 271152Z 33006KT 10SM SCT015 BKN045 OVC100 28/24 A2965 RMK
SLP042 60002 70085 8/82/ T02800242 10280 20267 52002=




000
SAZS31 NSTU 271054
MTRPPG
METAR NSTU 271050Z 35007KT 10SM SCT017 BKN030 OVC100 28/24 A2965 RMK
SLP042 T02790244 403120259=




000
SAZS31 NSTU 270953
MTRPPG
METAR NSTU 270950Z 00000KT 10SM SCT022TCU BKN030 OVC080 28/25 A2967
RMK TCU W-N-NE SLP047 T02760249=




000
SAZS31 NSTU 270953
MTRPPG
METAR NSTU 270950Z 00000KT 10SM SCT022TCU BKN030 OVC080 28/25 A2967
RMK TCU W-N-NE SLP047 T02760249=




000
SAZS31 NSTU 270857
MTRPPG
METAR NSTU 270853Z VRB03KT 10SM SCT022TCU BKN030 OVC080 28/25 A2965
RMK TCU ALQDS SLP041 60002 8/81/ T02750246 52007=




000
SAZS31 NSTU 270755
MTRPPG
METAR NSTU 270752Z 00000KT 10SM SCT019TCU BKN030 OVC080 27/25 A2965
RMK SHRAE10 TCU ALQDS SLP039 T02670252=




000
SAZS31 NSTU 270655
MTRPPG
METAR NSTU 270651Z 26006KT 10SM -SHRA SCT019TCU BKN030 OVC080 27/25
A2965 RMK SHRAB05 TCU ALQDS SLP042 T02720249=




000
SAZS31 NSTU 270600
MTRPPG
METAR NSTU 270554Z 32012G20KT 11SM SCT019TCU BKN030 OVC080 27/23
A2963 RMK SHRAE10 TCU ALQDS SLP034 60066 8/82/ T02710234 10310 20268
52010=




000
SAZS31 NSTU 270455
MTRPPG
METAR NSTU 270450Z 00000KT 11SM -SHRA FEW008 BKN018TCU BKN050
OVC080 27/25 A2960 RMK SHRAB15 TCU ALQDS SLP024 T02710254=




000
SAZS31 NSTU 270354
MTRPPG
METAR NSTU 270350Z 08003KT 12SM BKN012TCU BKN035 OVC090 27/25 A2960
RMK SHRAE50 TCU ALQDS SLP022 T02720252=




000
SAZS31 NSTU 270256
MTRPPG
METAR NSTU 270250Z 17003KT 11SM -SHRA SCT015CB BKN032 OVC085 27/25
A2960 RMK TSE50 CB SE SLP024 60060 8/92/ T02680252 54000=




000
SAZS31 NSTU 270155
MTRPPG
METAR NSTU 270151Z 32011KT 1/4SM +SHRA BKN014CB OVC032 27/24 A2960
RMK SHRAB39 CB ALQDS SLP025 T02700242=




000
SAZS31 NSTU 270057
MTRPPG
METAR NSTU 270052Z 16009KT 12SM VCSH SCT016CB BKN035 OVC080 30/25
A2959 RMK VCSH S CB SE-SW SLP022 T02960254=




000
SAZS31 NSTU 270056
MTRPPG
METAR NSTU 262350Z 12008KT 12SM VCSH SCT018TCU SCT035 BKN100 31/26
A2960 RMK VCSH S-SW TCU ALQDS SLP024 60007 8/870 T03100260 10312
20268 56014=




000
SAZS31 NSTU 262254
MTRPPG
METAR NSTU 262250Z 15010KT 12SM VCSH SCT018TCU BKN090 BKN250 30/26
A2962 RMK VCSH S TCU ALQDS SLP032 T02980257=




000
SAZS31 NSTU 262153
MTRPPG
METAR NSTU 262150Z VRB05KT 12SM VCSH SCT018TCU SCT140 BKN250 31/26
A2963 RMK SHRAB00E25 VCSH S TCU ALQDS SLP036 T03120261=




000
SAZS31 NSTU 262055
MTRPPG
METAR NSTU 262051Z VRB05KT 12SM SCT018TCU SCT140 BKN250 31/25 A2964
RMK TCU E SLP037 8/275 T03080252 51007=




000
SAZS31 NSTU 261858
MTRPPG
METAR NSTU 261855Z VRB05KT 12SM FEW020 SCT180 30/26 A2964 RMK SLP037
 T03000257=




000
SAZS31 NSTU 261756
MTRPPG
METAR NSTU 261750Z 00000KT 12SM FEW020 SCT180 27/25 A2962 RMK SLP030
60010 8/101 T02680252 10280 20259 52014=




000
SAZS31 NSTU 261656
MTRPPG
METAR NSTU 261652Z 00000KT 11SM FEW022 SCT180 26/25 A2959 RMK SLP022
T02620246=




000
SAZS31 NSTU 261619
MTRPPG
METAR NSTU 261550Z VRB03KT 10SM SCT022 SCT040 27/25 A2958 RMK
SHRAE20 SLP019 T02680246=




000
SAZS31 NSTU 261618
MTRPPG
METAR NSTU 261550Z VRB03KT 10SM SCT022 SCT040 27/25 A2958 RMK
SHRAE20 SLP019 T02680246=




000
SAZS31 NSTU 261456
MTRPPG
METAR NSTU 261452Z VRB03KT 10SM -SHRA FEW006 BKN017TCU OVC080 26/24
A2958 RMK SHRAB30 TCU W-N-NE SLP017 60010 8/8// T02590238 57012=




000
SAZS31 NSTU 261358
MTRPPG
METAR NSTU 261352Z VRB04KT 10SM FEW023 SCT050 BKN100 BKN200 28/25
A2958 RMK SLP017 T02790245=




000
SAZS31 NSTU 261356
MTRPPG
METAR NSTU 261352Z VRB04KT 10SM FEW023 SCT050 BKN100 BKN200 28/25
A2958 RMK SLP017 T02790245=




000
SAZS31 NSTU 261253
MTRPPG
METAR NSTU 261250Z 31006KT 10SM SCT019 BKN050 BKN100 28/24 A2959 RMK
SLP020 T02800244=




000
SAZS31 NSTU 261200
MTRPPG
METAR NSTU 261154Z VRB04KT 10SM SCT019 BKN050 BKN100 28/25 A2961 RMK
SHRAB05E40 60001 70001 8/110 T02770247 10293 20277 57012=




000
SAZS31 NSTU 261053
MTRPPG
METAR NSTU 261050Z VRB04KT 10SM FEW025 SCT050 BKN100 29/25 A2963 RMK
SLP034 T02870247 403090241=




000
SAZS31 NSTU 260952
MTRPPG
METAR NSTU 260950Z VRB02KT 10SM SCT020 BKN050 OVC100 29/25 A2965 RMK
SLP041 T02860250=




000
SAZS31 NSTU 260937
MTRPPG
METAR NSTU 260850Z 00000KT 10SM SCT020 BKN050 OVC100 29/25 A2965 RMK
SLP041 8/41/ T02870250 52015=




000
SAZS31 NSTU 260754
MTRPPG
METAR NSTU 260752Z 00000KT 12SM SCT020 BKN100 OVC250 29/25 A2964 RMK
SLP037 T02900249=





000
SAZS31 NSTU 260701
MTRPPG
METAR NSTU 260653Z 00000KT 12SM SCT020 BKN100 OVC250 28/25 A2962 RMK
SLP032 T02840248=






000
SAZS31 NSTU 260559
MTRPPG
METAR NSTU 260550Z 06003KT 12SM SCT020 BKN100 OVC250 29/24 A2960 RMK
SLP025 8/121 T02930244 10309 20293 52010=





000
SAZS31 NSTU 260500
MTRPPG
METAR NSTU 260455Z 33004KT 12SM SCT020 BKN100 OVC250 30/24 A2959 RMK
SLP022 T02960243=





000
SAZS31 NSTU 260411
MTRPPG
METAR NSTU 260350Z 32006KT 12SM SCT019 BKN100 OVC250 30/24 A2958 RMK
SLP019 T03010238=





000
SAZS31 NSTU 260251
MTRPPG
METAR NSTU 260250Z VRB04KT 12SM SCT019 BKN100 BKN250 31/24 A2957 RMK
SLP015 8/121 T03090240 56012=




000
SAZS31 NSTU 260154
MTRPPG
METAR NSTU 260151Z VRB05KT 12SM SCT020 BKN100 BKN250 31/25 A2959 RMK
SLP020 T03050245=




000
SAZS31 NSTU 260154
MTRPPG
METAR NSTU 260151Z VRB05KT 12SM SCT020 BKN100 BKN250 31/25 A2959 RMK
SLP020 T03050245=




000
SAZS31 NSTU 260053
MTRPPG
METAR NSTU 260050Z 00000KT 12SM SCT023 BKN060 BKN100 30/24 A2960 RMK
SLP024 T03000243=




000
SAZS31 NSTU 252356
MTRPPG
METAR NSTU 252351Z VRB05KT 12SM SCT023TCU SCT060 BKN100 BKN200 30/25
A2961 RMK TCU W-N SLP027 8/414 T02980245 10299 20241 57015=




000
SAZS31 NSTU 252253
MTRPPG
METAR NSTU 252250Z VRB04KT 12SM FEW025 SCT100 BKN200 30/24 A2964 RMK
SLP037 T02970242=




000
SAZS31 NSTU 252156
MTRPPG
METAR NSTU 252153Z VRB04KT 12SM FEW025 SCT100 BKN200 30/24 A2965 RMK
SLP041 T02990239=




000
SAZS31 NSTU 252055
MTRPPG
METAR NSTU 252054Z VRB04KT 12SM FEW025 SCT100 BKN200 29/24 A2965 RMK
SLP042 8/114 T02930240 52002=




000
SAZS31 NSTU 251953
MTRPPG
METAR NSTU 251950Z VRB03KT 12SM FEW025 SCT100 BKN200 29/24 A2966 RMK
SLP044 T02870241=




000
SAZS31 NSTU 251857
MTRPPG
METAR NSTU 251853Z VRB02KT 12SM FEW022 SCT200 28/25 A2966 RMK SLP044
T02750246=




000
SAZS31 NSTU 251757
MTRPPG
METAR NSTU 251751Z VRB03KT 12SM FEW022 SCT300 24/24 A2965 RMK SLP041
 8/108 T02410236 10251 20241 51012=




000
SAZS31 NSTU 251659
MTRPPG
METAR NSTU 251653Z VRB02KT 11SM FEW022 FEW210 24/23 A2963 RMK SLP036
 T02420231=




000
SAZS31 NSTU 251634
MTRPPG
METAR NSTU 251455Z VRB03KT 10SM FEW022 FEW045 25/24 A2961 RMK SLP029
 8/800 T02450235 56015=




000
SAZS31 NSTU 251354
MTRPPG
METAR NSTU 251351Z VRB02KT 10SM FEW022 FEW045 25/24 A2962 RMK SLP032
 T02480239=




000
SAZS31 NSTU 251322
MTRPPG
METAR NSTU 251250Z VRB03KT 10SM FEW022 SCT045 25/24 A2963 RMK SLP036
 T02510240=




000
SAZS31 NSTU 251219
MTRPPG
METAR NSTU 251052Z VRB02KT 10SM SCT022 BKN050 OVC100 25/24 A2969 RMK
 SLP054 T02510241 403070251=




000
SAZS31 NSTU 250954
MTRPPG
METAR NSTU 250951Z 00000KT 10SM SCT022 BKN050 OVC100 26/24 A2969 RMK
TSE08 SHRAE10 SLP056 T02550243=




000
SAZS31 NSTU 250954
MTRPPG
METAR NSTU 250951Z 00000KT 10SM SCT022 BKN050 OVC100 26/24 A2969 RMK
TSE08 SHRAE10 SLP056 T02550243=




000
SAZS31 NSTU 250900
MTRPPG
METAR NSTU 250852Z VRB02KT 10SM TS -SHRA BKN016CB OVC035 25/24 A2970
RMK CB ALQDS SLP058 60068 8/3// T02540243 52019=




000
SAZS31 NSTU 250756
MTRPPG
METAR NSTU 250753Z 18004KT 10SM TS SCT018CB BKN050 OVC100 28/24
A2967 RMK OCNL LTGIC W-NW TSB51 CB ALQDS SLP047 T02800240=




000
SAZS31 NSTU 250658
MTRPPG
METAR NSTU 250654Z 20007KT 10SM SCT020TCU BKN050 BKN100 OVC200 28/25
A2966 RMK TCU W-N SLP044 T02840246=




000
SAZS31 NSTU 250601
MTRPPG
METAR NSTU 250558Z 23003KT 11SM SCT023TCU SCT050 BKN100 BKN200 29/24
A2964 RMK TCU W-N-NE SLP039 8/474 T02920241 10307 20292 52010=




000
SAZS31 NSTU 250558
MTRPPG
METAR NSTU 250450Z 25008KT 12SM SCT023TCU SCT050 BKN100 BKN200 30/23
A2962 RMK TCU N-NE SLP032 T03010229=




    US Dept of Commerce
    National Oceanic and Atmospheric Administration
    National Weather Service
    1325 East West Highway
    Silver Spring, MD 20910
    Page Author: NWS Internet Services Team
Disclaimer
Information Quality
Credits
Glossary
Privacy Policy
Freedom of Information Act (FOIA)
About Us
Career Opportunities